createdAt,value
2019-03-08T00:00:22.859Z,9.05
2019-03-08T00:01:22.781Z,9.02
2019-03-08T00:02:22.692Z,9.04
2019-03-08T00:03:22.605Z,9.14
2019-03-08T00:04:22.531Z,9.10
2019-03-08T00:05:22.444Z,9.18
2019-03-08T00:06:22.355Z,9.13
2019-03-08T00:07:22.269Z,9.02
2019-03-08T00:08:22.195Z,9.08
2019-03-08T00:09:22.108Z,9.18
2019-03-08T00:10:22.022Z,9.10
2019-03-08T00:11:21.945Z,9.11
2019-03-08T00:12:21.856Z,9.05
2019-03-08T00:13:21.774Z,9.10
2019-03-08T00:14:21.683Z,9.14
2019-03-08T00:15:21.607Z,9.05
2019-03-08T00:16:21.523Z,9.04
2019-03-08T00:17:21.437Z,9.04
2019-03-08T00:18:21.358Z,9.15
2019-03-08T00:19:21.276Z,9.21
2019-03-08T00:20:21.183Z,9.28
2019-03-08T00:21:21.096Z,9.05
2019-03-08T00:22:21.020Z,9.08
2019-03-08T00:23:20.934Z,9.08
2019-03-08T00:24:20.852Z,9.08
2019-03-08T00:25:20.771Z,9.01
2019-03-08T00:26:20.683Z,8.96
2019-03-08T00:27:20.596Z,9.01
2019-03-08T00:28:20.509Z,9.13
2019-03-08T00:29:20.433Z,9.24
2019-03-08T00:30:20.346Z,9.24
2019-03-08T00:31:20.272Z,9.18
2019-03-08T00:32:20.183Z,9.15
2019-03-08T00:33:20.097Z,9.17
2019-03-08T00:34:20.010Z,9.13
2019-03-08T00:35:19.922Z,9.08
2019-03-08T00:36:19.849Z,9.04
2019-03-08T00:37:19.759Z,8.92
2019-03-08T00:38:19.672Z,8.99
2019-03-08T00:39:19.585Z,9.11
2019-03-08T00:40:19.510Z,9.11
2019-03-08T00:41:19.423Z,8.95
2019-03-08T00:42:19.334Z,9.02
2019-03-08T00:43:19.263Z,8.92
2019-03-08T00:44:19.173Z,9.11
2019-03-08T00:45:19.085Z,8.92
2019-03-08T00:46:18.999Z,9.04
2019-03-08T00:47:18.927Z,9.04
2019-03-08T00:48:19.085Z,8.87
2019-03-08T00:49:18.769Z,8.94
2019-03-08T00:50:18.664Z,8.95
2019-03-08T00:51:18.585Z,8.91
2019-03-08T00:52:18.500Z,8.84
2019-03-08T00:53:18.412Z,8.92
2019-03-08T00:54:18.336Z,8.87
2019-03-08T00:55:18.251Z,8.96
2019-03-08T00:56:18.161Z,8.98
2019-03-08T00:57:18.075Z,8.92
2019-03-08T00:58:17.999Z,8.86
2019-03-08T00:59:17.912Z,8.84
2019-03-08T01:00:17.826Z,8.79
2019-03-08T01:01:17.749Z,8.83
2019-03-08T01:02:17.661Z,8.86
2019-03-08T01:03:17.579Z,8.71
2019-03-08T01:04:17.487Z,8.96
2019-03-08T01:05:17.413Z,8.92
2019-03-08T01:06:17.327Z,8.87
2019-03-08T01:07:17.237Z,8.84
2019-03-08T01:08:17.151Z,8.91
2019-03-08T01:09:17.077Z,8.89
2019-03-08T01:10:17.001Z,8.81
2019-03-08T01:11:16.901Z,8.68
2019-03-08T01:12:16.814Z,8.73
2019-03-08T01:13:16.738Z,8.71
2019-03-08T01:14:16.651Z,8.86
2019-03-08T01:15:16.586Z,8.84
2019-03-08T01:16:16.488Z,8.96
2019-03-08T01:17:16.403Z,8.91
2019-03-08T01:18:16.313Z,8.81
2019-03-08T01:19:16.231Z,8.86
2019-03-08T01:20:16.155Z,8.83
2019-03-08T01:21:16.064Z,8.66
2019-03-08T01:22:15.977Z,8.73
2019-03-08T01:23:16.153Z,8.58
2019-03-08T01:24:15.814Z,8.73
2019-03-08T01:25:15.731Z,8.70
2019-03-08T01:26:15.640Z,8.74
2019-03-08T01:27:15.565Z,8.71
2019-03-08T01:28:15.478Z,8.74
2019-03-08T01:29:15.402Z,8.80
2019-03-08T01:30:15.303Z,8.80
2019-03-08T01:31:15.236Z,8.71
2019-03-08T01:32:15.140Z,8.80
2019-03-08T01:33:15.054Z,8.71
2019-03-08T01:34:14.965Z,8.86
2019-03-08T01:35:14.903Z,8.83
2019-03-08T01:36:14.804Z,8.83
2019-03-08T01:37:14.715Z,8.81
2019-03-08T01:38:14.879Z,8.74
2019-03-08T01:39:14.554Z,8.71
2019-03-08T01:40:14.466Z,8.71
2019-03-08T01:41:14.379Z,8.68
2019-03-08T01:42:14.304Z,8.58
2019-03-08T01:43:14.216Z,8.61
2019-03-08T01:44:14.135Z,8.59
2019-03-08T01:45:14.041Z,8.56
2019-03-08T01:46:13.967Z,8.62
2019-03-08T01:47:13.880Z,8.58
2019-03-08T01:48:14.092Z,8.56
2019-03-08T01:49:13.709Z,8.76
2019-03-08T01:50:13.630Z,8.73
2019-03-08T01:51:13.545Z,8.73
2019-03-08T01:52:13.455Z,8.70
2019-03-08T01:53:13.367Z,8.73
2019-03-08T01:54:13.293Z,8.81
2019-03-08T01:55:13.205Z,8.74
2019-03-08T01:56:13.118Z,8.73
2019-03-08T01:57:13.031Z,8.73
2019-03-08T01:58:12.957Z,8.62
2019-03-08T01:59:12.867Z,8.68
2019-03-08T02:00:12.794Z,8.83
2019-03-08T02:01:12.716Z,8.73
2019-03-08T02:02:12.618Z,8.71
2019-03-08T02:03:12.532Z,8.86
2019-03-08T02:04:12.443Z,8.73
2019-03-08T02:05:12.357Z,8.77
2019-03-08T02:06:12.282Z,8.92
2019-03-08T02:07:12.194Z,8.89
2019-03-08T02:08:12.109Z,8.84
2019-03-08T02:09:12.020Z,8.98
2019-03-08T02:10:11.944Z,8.91
2019-03-08T02:11:11.858Z,8.89
2019-03-08T02:12:11.769Z,8.84
2019-03-08T02:13:11.694Z,8.84
2019-03-08T02:14:11.610Z,8.81
2019-03-08T02:15:11.521Z,8.73
2019-03-08T02:16:11.436Z,8.70
2019-03-08T02:17:11.359Z,8.84
2019-03-08T02:18:11.273Z,8.83
2019-03-08T02:19:11.183Z,8.87
2019-03-08T02:20:11.095Z,8.92
2019-03-08T02:21:11.022Z,8.92
2019-03-08T02:22:10.933Z,8.89
2019-03-08T02:23:10.845Z,8.84
2019-03-08T02:24:10.759Z,8.91
2019-03-08T02:25:10.684Z,8.91
2019-03-08T02:26:10.596Z,8.95
2019-03-08T02:27:10.510Z,8.87
2019-03-08T02:28:10.422Z,8.99
2019-03-08T02:29:10.348Z,9.02
2019-03-08T02:30:10.260Z,8.92
2019-03-08T02:31:10.173Z,8.99
2019-03-08T02:32:10.096Z,8.94
2019-03-08T02:33:10.011Z,8.89
2019-03-08T02:34:09.921Z,8.96
2019-03-08T02:35:09.836Z,9.02
2019-03-08T02:36:09.761Z,8.98
2019-03-08T02:37:09.671Z,9.02
2019-03-08T02:38:09.587Z,8.95
2019-03-08T02:39:09.511Z,9.02
2019-03-08T02:40:09.422Z,9.02
2019-03-08T02:41:09.335Z,9.10
2019-03-08T02:42:09.247Z,8.96
2019-03-08T02:43:09.172Z,8.96
2019-03-08T02:44:09.086Z,8.86
2019-03-08T02:45:09.010Z,8.99
2019-03-08T02:46:08.911Z,9.02
2019-03-08T02:47:08.824Z,9.01
2019-03-08T02:48:09.048Z,9.02
2019-03-08T02:49:08.661Z,9.02
2019-03-08T02:50:08.573Z,8.96
2019-03-08T02:51:08.498Z,9.10
2019-03-08T02:52:08.412Z,9.04
2019-03-08T02:53:08.323Z,9.11
2019-03-08T02:54:08.237Z,9.05
2019-03-08T02:55:08.162Z,8.99
2019-03-08T02:56:08.074Z,8.98
2019-03-08T02:57:07.990Z,8.98
2019-03-08T02:58:07.902Z,9.10
2019-03-08T02:59:07.823Z,9.04
2019-03-08T03:00:07.737Z,9.11
2019-03-08T03:01:07.663Z,9.18
2019-03-08T03:02:07.564Z,9.11
2019-03-08T03:03:07.489Z,9.04
2019-03-08T03:04:07.399Z,9.02
2019-03-08T03:05:07.314Z,8.92
2019-03-08T03:06:07.227Z,9.04
2019-03-08T03:07:07.151Z,9.05
2019-03-08T03:08:07.065Z,9.04
2019-03-08T03:09:06.975Z,9.05
2019-03-08T03:10:06.900Z,9.05
2019-03-08T03:11:06.813Z,9.05
2019-03-08T03:12:06.725Z,8.96
2019-03-08T03:13:06.939Z,8.95
2019-03-08T03:14:06.564Z,9.05
2019-03-08T03:15:06.493Z,9.08
2019-03-08T03:16:06.390Z,9.08
2019-03-08T03:17:06.304Z,9.10
2019-03-08T03:18:06.230Z,9.02
2019-03-08T03:19:06.139Z,9.01
2019-03-08T03:20:06.052Z,8.95
2019-03-08T03:21:05.976Z,8.95
2019-03-08T03:22:05.891Z,8.99
2019-03-08T03:23:05.802Z,9.13
2019-03-08T03:24:05.715Z,9.18
2019-03-08T03:25:05.641Z,9.21
2019-03-08T03:26:05.552Z,9.23
2019-03-08T03:27:05.466Z,9.20
2019-03-08T03:28:05.389Z,9.17
2019-03-08T03:29:05.315Z,9.20
2019-03-08T03:30:05.217Z,9.24
2019-03-08T03:31:05.193Z,9.28
2019-03-08T03:32:05.056Z,9.32
2019-03-08T03:33:04.967Z,9.33
2019-03-08T03:34:04.877Z,9.20
2019-03-08T03:35:04.791Z,9.32
2019-03-08T03:36:04.716Z,9.29
2019-03-08T03:37:04.641Z,9.24
2019-03-08T03:38:04.792Z,9.20
2019-03-08T03:39:04.472Z,9.23
2019-03-08T03:40:04.379Z,9.17
2019-03-08T03:41:04.295Z,9.11
2019-03-08T03:42:04.214Z,9.20
2019-03-08T03:43:04.142Z,9.15
2019-03-08T03:44:04.042Z,9.13
2019-03-08T03:45:03.954Z,9.23
2019-03-08T03:46:03.879Z,9.24
2019-03-08T03:47:03.796Z,9.29
2019-03-08T03:48:03.705Z,9.20
2019-03-08T03:49:03.618Z,9.24
2019-03-08T03:50:03.544Z,9.33
2019-03-08T03:51:03.454Z,9.35
2019-03-08T03:52:03.372Z,9.33
2019-03-08T03:53:03.283Z,9.40
2019-03-08T03:54:03.205Z,9.31
2019-03-08T03:55:03.119Z,9.26
2019-03-08T03:56:03.030Z,9.23
2019-03-08T03:57:02.967Z,9.28
2019-03-08T03:58:03.117Z,9.32
2019-03-08T03:59:02.794Z,9.31
2019-03-08T04:00:02.694Z,9.28
2019-03-08T04:01:02.619Z,9.28
2019-03-08T04:02:02.531Z,9.24
2019-03-08T04:03:02.448Z,9.31
2019-03-08T04:04:02.370Z,9.31
2019-03-08T04:05:02.289Z,9.24
2019-03-08T04:06:02.195Z,9.21
2019-03-08T04:07:02.119Z,9.32
2019-03-08T04:08:02.332Z,9.32
2019-03-08T04:09:01.945Z,9.24
2019-03-08T04:10:01.858Z,9.36
2019-03-08T04:11:01.781Z,9.31
2019-03-08T04:12:01.695Z,9.39
2019-03-08T04:13:01.621Z,9.38
2019-03-08T04:14:01.521Z,9.33
2019-03-08T04:15:01.448Z,9.32
2019-03-08T04:16:01.358Z,9.38
2019-03-08T04:17:01.272Z,9.40
2019-03-08T04:18:01.195Z,9.40
2019-03-08T04:19:01.108Z,9.42
2019-03-08T04:20:01.021Z,9.43
2019-03-08T04:21:00.934Z,9.40
2019-03-08T04:22:00.859Z,9.40
2019-03-08T04:23:00.773Z,9.39
2019-03-08T04:24:00.684Z,9.43
2019-03-08T04:25:00.608Z,9.46
2019-03-08T04:26:00.524Z,9.39
2019-03-08T04:27:00.452Z,9.53
2019-03-08T04:28:00.347Z,9.53
2019-03-08T04:29:00.271Z,9.42
2019-03-08T04:30:00.312Z,9.39
2019-03-08T04:31:00.109Z,9.56
2019-03-08T04:32:00.023Z,9.48
2019-03-08T04:32:59.946Z,9.50
2019-03-08T04:33:59.847Z,9.60
2019-03-08T04:34:59.760Z,9.53
2019-03-08T04:35:59.684Z,9.54
2019-03-08T04:36:59.597Z,9.57
2019-03-08T04:37:59.509Z,9.68
2019-03-08T04:38:59.447Z,9.57
2019-03-08T04:39:59.349Z,9.61
2019-03-08T04:40:59.260Z,9.58
2019-03-08T04:41:59.173Z,9.61
2019-03-08T04:42:59.100Z,9.60
2019-03-08T04:43:59.010Z,9.56
2019-03-08T04:44:58.924Z,9.56
2019-03-08T04:45:58.854Z,9.65
2019-03-08T04:46:58.760Z,9.64
2019-03-08T04:47:58.924Z,9.65
2019-03-08T04:48:58.599Z,9.66
2019-03-08T04:49:58.511Z,9.68
2019-03-08T04:50:58.429Z,9.71
2019-03-08T04:51:58.350Z,9.76
2019-03-08T04:52:58.264Z,9.76
2019-03-08T04:53:58.174Z,9.75
2019-03-08T04:54:58.087Z,9.78
2019-03-08T04:55:58.014Z,9.76
2019-03-08T04:56:57.925Z,9.83
2019-03-08T04:57:57.837Z,9.72
2019-03-08T04:58:57.753Z,9.75
2019-03-08T04:59:57.675Z,9.69
2019-03-08T05:00:57.595Z,9.64
2019-03-08T05:01:57.500Z,9.64
2019-03-08T05:02:57.426Z,9.76
2019-03-08T05:03:57.337Z,9.69
2019-03-08T05:04:57.251Z,9.64
2019-03-08T05:05:57.165Z,9.61
2019-03-08T05:06:57.088Z,9.61
2019-03-08T05:07:57.002Z,9.64
2019-03-08T05:08:56.926Z,9.68
2019-03-08T05:09:56.839Z,9.76
2019-03-08T05:10:56.753Z,9.71
2019-03-08T05:11:56.665Z,9.76
2019-03-08T05:12:56.589Z,9.75
2019-03-08T05:13:56.507Z,9.72
2019-03-08T05:14:56.415Z,9.72
2019-03-08T05:15:56.327Z,9.74
2019-03-08T05:16:56.252Z,9.71
2019-03-08T05:17:56.177Z,9.69
2019-03-08T05:18:56.078Z,9.75
2019-03-08T05:19:56.009Z,9.74
2019-03-08T05:20:55.915Z,9.71
2019-03-08T05:21:55.828Z,9.83
2019-03-08T05:22:55.753Z,9.76
2019-03-08T05:23:55.678Z,9.79
2019-03-08T05:24:55.578Z,9.81
2019-03-08T05:25:55.493Z,9.89
2019-03-08T05:26:55.415Z,9.81
2019-03-08T05:27:55.330Z,9.78
2019-03-08T05:28:55.249Z,9.83
2019-03-08T05:29:55.178Z,9.81
2019-03-08T05:30:55.078Z,9.91
2019-03-08T05:31:54.990Z,9.75
2019-03-08T05:32:54.917Z,9.86
2019-03-08T05:33:54.831Z,9.69
2019-03-08T05:34:54.740Z,9.78
2019-03-08T05:35:54.666Z,9.76
2019-03-08T05:36:54.579Z,9.81
2019-03-08T05:37:54.741Z,9.79
2019-03-08T05:38:54.404Z,9.83
2019-03-08T05:39:54.330Z,9.89
2019-03-08T05:40:54.244Z,9.89
2019-03-08T05:41:54.167Z,9.83
2019-03-08T05:42:54.120Z,9.78
2019-03-08T05:43:54.005Z,9.83
2019-03-08T05:44:53.905Z,9.86
2019-03-08T05:45:53.833Z,9.89
2019-03-08T05:46:53.744Z,9.87
2019-03-08T05:47:53.656Z,9.75
2019-03-08T05:48:53.568Z,9.93
2019-03-08T05:49:53.492Z,9.89
2019-03-08T05:50:53.415Z,9.94
2019-03-08T05:51:53.318Z,9.96
2019-03-08T05:52:53.258Z,9.93
2019-03-08T05:53:53.156Z,9.96
2019-03-08T05:54:53.068Z,9.89
2019-03-08T05:55:52.992Z,9.94
2019-03-08T05:56:52.907Z,9.94
2019-03-08T05:57:52.819Z,9.90
2019-03-08T05:58:52.757Z,9.91
2019-03-08T05:59:52.657Z,9.90
2019-03-08T06:00:52.573Z,9.96
2019-03-08T06:01:52.493Z,9.99
2019-03-08T06:02:52.407Z,9.94
2019-03-08T06:03:52.319Z,10.02
2019-03-08T06:04:52.232Z,9.97
2019-03-08T06:05:52.157Z,10.05
2019-03-08T06:06:52.072Z,9.93
2019-03-08T06:07:51.984Z,10.07
2019-03-08T06:08:51.907Z,9.97
2019-03-08T06:09:51.823Z,10.08
2019-03-08T06:10:51.745Z,10.04
2019-03-08T06:11:51.658Z,9.99
2019-03-08T06:12:51.820Z,10.01
2019-03-08T06:13:51.483Z,10.11
2019-03-08T06:14:51.408Z,10.08
2019-03-08T06:15:51.322Z,10.18
2019-03-08T06:16:51.245Z,10.12
2019-03-08T06:17:51.148Z,10.22
2019-03-08T06:18:51.071Z,10.01
2019-03-08T06:19:50.984Z,9.97
2019-03-08T06:20:50.905Z,10.05
2019-03-08T06:21:50.821Z,10.14
2019-03-08T06:22:50.734Z,10.11
2019-03-08T06:23:50.647Z,10.04
2019-03-08T06:24:50.573Z,10.04
2019-03-08T06:25:50.484Z,10.02
2019-03-08T06:26:50.397Z,10.12
2019-03-08T06:27:50.322Z,10.11
2019-03-08T06:28:50.235Z,10.11
2019-03-08T06:29:50.147Z,10.14
2019-03-08T06:30:50.074Z,10.11
2019-03-08T06:31:49.985Z,10.14
2019-03-08T06:32:49.946Z,10.23
2019-03-08T06:33:49.826Z,10.23
2019-03-08T06:34:49.736Z,10.22
2019-03-08T06:35:49.649Z,10.18
2019-03-08T06:36:49.573Z,10.18
2019-03-08T06:37:49.792Z,10.22
2019-03-08T06:38:49.398Z,10.29
2019-03-08T06:39:49.323Z,10.17
2019-03-08T06:40:49.236Z,10.20
2019-03-08T06:41:49.148Z,10.23
2019-03-08T06:42:49.073Z,10.18
2019-03-08T06:43:48.986Z,10.30
2019-03-08T06:44:48.899Z,10.20
2019-03-08T06:45:48.824Z,10.23
2019-03-08T06:46:48.739Z,10.22
2019-03-08T06:47:48.924Z,10.22
2019-03-08T06:48:48.573Z,10.18
2019-03-08T06:49:48.487Z,10.20
2019-03-08T06:50:48.400Z,10.23
2019-03-08T06:51:48.327Z,10.12
2019-03-08T06:52:48.237Z,10.14
2019-03-08T06:53:48.167Z,10.23
2019-03-08T06:54:48.076Z,10.14
2019-03-08T06:55:47.991Z,10.15
2019-03-08T06:56:47.900Z,10.18
2019-03-08T06:57:47.825Z,10.11
2019-03-08T06:58:47.737Z,10.12
2019-03-08T06:59:47.663Z,10.18
2019-03-08T07:00:47.563Z,10.12
2019-03-08T07:01:47.489Z,10.12
2019-03-08T07:02:47.400Z,10.15
2019-03-08T07:03:47.315Z,10.18
2019-03-08T07:04:47.238Z,10.17
2019-03-08T07:05:47.151Z,10.09
2019-03-08T07:06:47.066Z,10.09
2019-03-08T07:07:46.993Z,10.09
2019-03-08T07:08:46.915Z,10.07
2019-03-08T07:09:46.817Z,10.07
2019-03-08T07:10:46.747Z,10.07
2019-03-08T07:11:46.652Z,10.02
2019-03-08T07:12:46.816Z,10.02
2019-03-08T07:13:46.492Z,10.01
2019-03-08T07:14:46.414Z,10.01
2019-03-08T07:15:46.315Z,10.11
2019-03-08T07:16:46.243Z,10.15
2019-03-08T07:17:46.152Z,10.15
2019-03-08T07:18:46.066Z,10.12
2019-03-08T07:19:45.994Z,10.12
2019-03-08T07:20:45.916Z,10.18
2019-03-08T07:21:45.815Z,10.12
2019-03-08T07:22:45.744Z,10.18
2019-03-08T07:23:45.659Z,10.09
2019-03-08T07:24:45.566Z,10.20
2019-03-08T07:25:51.529Z,10.15
2019-03-08T07:26:45.417Z,10.20
2019-03-08T07:27:45.316Z,10.20
2019-03-08T07:28:45.247Z,10.15
2019-03-08T07:29:45.153Z,10.20
2019-03-08T07:30:45.079Z,10.25
2019-03-08T07:31:44.992Z,10.22
2019-03-08T07:32:44.905Z,10.22
2019-03-08T07:33:52.960Z,10.22
2019-03-08T07:34:44.743Z,10.26
2019-03-08T07:35:44.653Z,10.25
2019-03-08T07:36:44.579Z,10.32
2019-03-08T07:37:44.743Z,10.17
2019-03-08T07:38:44.406Z,10.26
2019-03-08T07:39:44.330Z,10.22
2019-03-08T07:40:44.243Z,10.27
2019-03-08T07:41:44.154Z,10.26
2019-03-08T07:42:45.097Z,10.29
2019-03-08T07:43:43.993Z,10.32
2019-03-08T07:44:43.908Z,10.30
2019-03-08T07:45:44.325Z,10.32
2019-03-08T07:46:43.743Z,10.40
2019-03-08T07:47:43.655Z,10.55
2019-03-08T07:48:43.580Z,10.47
2019-03-08T07:49:43.496Z,10.47
2019-03-08T07:50:43.412Z,10.38
2019-03-08T07:51:43.331Z,10.44
2019-03-08T07:52:43.247Z,10.47
2019-03-08T07:53:43.156Z,10.44
2019-03-08T07:54:43.082Z,10.55
2019-03-08T07:55:42.996Z,10.59
2019-03-08T07:56:42.907Z,10.52
2019-03-08T07:57:42.832Z,10.60
2019-03-08T07:58:42.745Z,10.59
2019-03-08T07:59:42.717Z,10.59
2019-03-08T08:00:42.593Z,10.56
2019-03-08T08:01:42.495Z,10.56
2019-03-08T08:02:42.408Z,10.56
2019-03-08T08:03:42.335Z,10.63
2019-03-08T08:04:42.246Z,10.55
2019-03-08T08:05:42.163Z,10.71
2019-03-08T08:06:42.083Z,10.56
2019-03-08T08:07:41.995Z,10.74
2019-03-08T08:08:51.086Z,10.81
2019-03-08T08:09:41.833Z,10.85
2019-03-08T08:10:41.746Z,10.86
2019-03-08T08:11:41.671Z,10.81
2019-03-08T08:12:41.833Z,10.84
2019-03-08T08:13:41.496Z,10.70
2019-03-08T08:14:41.421Z,10.64
2019-03-08T08:15:41.333Z,10.56
2019-03-08T08:16:41.259Z,10.51
2019-03-08T08:17:41.171Z,10.51
2019-03-08T08:18:41.084Z,10.44
2019-03-08T08:19:41.022Z,10.42
2019-03-08T08:20:40.923Z,10.42
2019-03-08T08:21:40.834Z,10.41
2019-03-08T08:22:41.060Z,10.34
2019-03-08T08:23:40.672Z,10.36
2019-03-08T08:24:40.585Z,10.30
2019-03-08T08:25:40.522Z,10.29
2019-03-08T08:26:40.429Z,10.25
2019-03-08T08:27:40.349Z,10.27
2019-03-08T08:28:49.466Z,10.34
2019-03-08T08:29:40.203Z,10.36
2019-03-08T08:30:40.111Z,10.38
2019-03-08T08:31:40.023Z,10.44
2019-03-08T08:32:39.923Z,10.53
2019-03-08T08:33:39.849Z,10.55
2019-03-08T08:34:39.760Z,10.41
2019-03-08T08:35:39.674Z,10.42
2019-03-08T08:36:39.599Z,10.38
2019-03-08T08:37:39.514Z,10.27
2019-03-08T08:38:39.424Z,10.26
2019-03-08T08:39:40.960Z,10.32
2019-03-08T08:40:39.262Z,10.30
2019-03-08T08:41:39.178Z,10.27
2019-03-08T08:42:39.099Z,10.41
2019-03-08T08:43:39.012Z,10.38
2019-03-08T08:44:38.926Z,10.33
2019-03-08T08:45:38.850Z,10.26
2019-03-08T08:46:38.775Z,10.36
2019-03-08T08:47:38.686Z,10.26
2019-03-08T08:48:38.604Z,10.30
2019-03-08T08:49:38.512Z,10.26
2019-03-08T08:50:38.437Z,10.32
2019-03-08T08:51:38.352Z,10.20
2019-03-08T08:52:38.263Z,10.15
2019-03-08T08:53:38.188Z,10.23
2019-03-08T08:54:38.103Z,10.34
2019-03-08T08:55:38.012Z,10.33
2019-03-08T08:56:37.939Z,10.26
2019-03-08T08:57:37.851Z,10.27
2019-03-08T08:58:37.764Z,10.26
2019-03-08T08:59:37.689Z,10.33
2019-03-08T09:00:37.602Z,10.36
2019-03-08T09:01:37.514Z,10.26
2019-03-08T09:02:37.438Z,10.26
2019-03-08T09:03:37.352Z,10.27
2019-03-08T09:04:37.264Z,10.25
2019-03-08T09:05:37.201Z,10.27
2019-03-08T09:06:37.101Z,10.30
2019-03-08T09:07:37.016Z,10.44
2019-03-08T09:08:36.939Z,10.47
2019-03-08T09:09:36.853Z,10.51
2019-03-08T09:10:36.767Z,10.38
2019-03-08T09:11:44.071Z,10.34
2019-03-08T09:12:36.856Z,10.38
2019-03-08T09:13:36.530Z,10.27
2019-03-08T09:14:36.440Z,10.30
2019-03-08T09:15:36.355Z,10.26
2019-03-08T09:16:36.279Z,10.32
2019-03-08T09:17:36.193Z,10.45
2019-03-08T09:18:36.108Z,10.40
2019-03-08T09:19:36.031Z,10.47
2019-03-08T09:20:35.941Z,10.42
2019-03-08T09:21:35.853Z,10.45
2019-03-08T09:22:35.784Z,10.44
2019-03-08T09:23:35.692Z,10.36
2019-03-08T09:24:35.607Z,10.26
2019-03-08T09:25:35.529Z,10.14
2019-03-08T09:26:35.454Z,10.08
2019-03-08T09:27:35.356Z,10.02
2019-03-08T09:28:35.283Z,10.04
2019-03-08T09:29:41.339Z,10.04
2019-03-08T09:30:35.118Z,10.09
2019-03-08T09:31:35.031Z,10.08
2019-03-08T09:32:34.943Z,10.05
2019-03-08T09:33:34.867Z,10.08
2019-03-08T09:34:34.781Z,10.15
2019-03-08T09:35:34.692Z,10.15
2019-03-08T09:36:34.617Z,10.26
2019-03-08T09:37:34.782Z,10.15
2019-03-08T09:38:34.442Z,10.23
2019-03-08T09:39:34.368Z,10.22
2019-03-08T09:40:34.280Z,10.32
2019-03-08T09:41:34.193Z,10.29
2019-03-08T09:42:34.131Z,10.41
2019-03-08T09:43:34.031Z,10.52
2019-03-08T09:44:33.943Z,10.51
2019-03-08T09:45:33.882Z,10.44
2019-03-08T09:46:33.782Z,10.45
2019-03-08T09:47:33.695Z,10.55
2019-03-08T09:48:33.620Z,10.47
2019-03-08T09:49:33.532Z,10.40
2019-03-08T09:50:33.457Z,10.44
2019-03-08T09:51:33.370Z,10.52
2019-03-08T09:52:33.282Z,10.45
2019-03-08T09:53:33.208Z,10.44
2019-03-08T09:54:33.120Z,10.26
2019-03-08T09:55:33.033Z,10.22
2019-03-08T09:56:32.963Z,10.07
2019-03-08T09:57:33.219Z,9.99
2019-03-08T09:58:32.795Z,10.11
2019-03-08T09:59:32.707Z,10.01
2019-03-08T10:00:32.621Z,10.01
2019-03-08T10:01:32.550Z,9.89
2019-03-08T10:02:32.459Z,9.90
2019-03-08T10:03:32.370Z,9.87
2019-03-08T10:04:32.296Z,9.89
2019-03-08T10:05:32.213Z,9.91
2019-03-08T10:06:32.124Z,9.91
2019-03-08T10:07:32.046Z,10.07
2019-03-08T10:08:31.959Z,10.11
2019-03-08T10:09:31.872Z,10.14
2019-03-08T10:10:31.796Z,10.20
2019-03-08T10:11:31.709Z,10.20
2019-03-08T10:12:31.624Z,10.26
2019-03-08T10:13:31.546Z,10.32
2019-03-08T10:14:31.460Z,10.41
2019-03-08T10:15:31.386Z,10.51
2019-03-08T10:16:31.300Z,10.59
2019-03-08T10:17:31.221Z,10.60
2019-03-08T10:18:31.135Z,10.56
2019-03-08T10:19:31.059Z,10.68
2019-03-08T10:20:30.960Z,10.60
2019-03-08T10:21:30.885Z,10.59
2019-03-08T10:22:30.797Z,10.55
2019-03-08T10:23:30.722Z,10.48
2019-03-08T10:24:30.635Z,10.47
2019-03-08T10:25:30.563Z,10.45
2019-03-08T10:26:30.472Z,10.55
2019-03-08T10:27:37.911Z,10.56
2019-03-08T10:28:30.305Z,10.59
2019-03-08T10:29:30.235Z,10.53
2019-03-08T10:30:31.859Z,10.59
2019-03-08T10:31:30.068Z,10.51
2019-03-08T10:32:37.121Z,10.67
2019-03-08T10:33:29.888Z,10.81
2019-03-08T10:34:29.829Z,10.79
2019-03-08T10:35:29.727Z,10.79
2019-03-08T10:36:29.675Z,10.96
2019-03-08T10:37:29.813Z,11.03
2019-03-08T10:38:29.475Z,10.97
2019-03-08T10:39:29.399Z,11.04
2019-03-08T10:40:29.312Z,11.29
2019-03-08T10:41:29.240Z,11.27
2019-03-08T10:42:29.149Z,11.43
2019-03-08T10:43:29.074Z,11.54
2019-03-08T10:44:28.988Z,11.69
2019-03-08T10:45:28.913Z,12.07
2019-03-08T10:46:28.825Z,12.21
2019-03-08T10:47:28.742Z,12.09
2019-03-08T10:48:28.663Z,12.04
2019-03-08T10:49:28.575Z,11.67
2019-03-08T10:50:28.501Z,11.55
2019-03-08T10:51:28.417Z,11.80
2019-03-08T10:52:28.340Z,11.99
2019-03-08T10:53:28.251Z,11.70
2019-03-08T10:54:28.175Z,11.58
2019-03-08T10:55:28.089Z,11.67
2019-03-08T10:56:28.018Z,11.61
2019-03-08T10:57:28.226Z,11.55
2019-03-08T10:58:27.851Z,11.43
2019-03-08T10:59:27.765Z,11.28
2019-03-08T11:00:27.689Z,11.24
2019-03-08T11:01:27.602Z,11.35
2019-03-08T11:02:27.540Z,10.97
2019-03-08T11:03:27.440Z,10.79
2019-03-08T11:04:27.354Z,10.85
2019-03-08T11:05:27.276Z,10.92
2019-03-08T11:06:27.203Z,11.00
2019-03-08T11:07:27.115Z,11.33
2019-03-08T11:08:29.754Z,11.78
2019-03-08T11:09:26.952Z,11.82
2019-03-08T11:10:26.868Z,11.54
2019-03-08T11:11:26.791Z,11.40
2019-03-08T11:12:26.703Z,11.14
2019-03-08T11:13:26.628Z,10.84
2019-03-08T11:14:26.541Z,10.48
2019-03-08T11:15:26.466Z,10.18
2019-03-08T11:16:26.382Z,10.17
2019-03-08T11:17:26.303Z,10.02
2019-03-08T11:18:26.216Z,9.93
2019-03-08T11:19:27.606Z,9.72
2019-03-08T11:20:26.053Z,9.75
2019-03-08T11:21:25.966Z,9.56
2019-03-08T11:22:25.893Z,9.47
2019-03-08T11:23:25.805Z,9.43
2019-03-08T11:24:25.728Z,9.24
2019-03-08T11:25:34.555Z,9.32
2019-03-08T11:26:25.556Z,9.18
2019-03-08T11:27:25.479Z,8.84
2019-03-08T11:28:25.392Z,8.73
2019-03-08T11:29:25.318Z,8.33
2019-03-08T11:30:25.231Z,8.12
2019-03-08T11:31:25.143Z,7.93
2019-03-08T11:32:25.069Z,7.80
2019-03-08T11:33:24.982Z,7.71
2019-03-08T11:34:25.470Z,7.69
2019-03-08T11:35:24.818Z,7.63
2019-03-08T11:36:24.731Z,7.53
2019-03-08T11:37:24.661Z,7.42
2019-03-08T11:38:24.569Z,7.34
2019-03-08T11:39:24.480Z,7.13
2019-03-08T11:40:24.393Z,7.02
2019-03-08T11:41:24.319Z,7.03
2019-03-08T11:42:24.231Z,7.05
2019-03-08T11:43:24.145Z,7.03
2019-03-08T11:44:24.069Z,6.99
2019-03-08T11:45:23.985Z,6.98
2019-03-08T11:46:23.896Z,7.21
2019-03-08T11:47:23.807Z,7.50
2019-03-08T11:48:23.731Z,7.52
2019-03-08T11:49:23.647Z,7.75
2019-03-08T11:50:23.557Z,7.92
2019-03-08T11:51:23.470Z,7.98
2019-03-08T11:52:23.396Z,7.90
2019-03-08T11:53:23.308Z,8.05
2019-03-08T11:54:23.225Z,8.05
2019-03-08T11:55:23.134Z,8.00
2019-03-08T11:56:23.057Z,8.12
2019-03-08T11:57:22.971Z,8.29
2019-03-08T11:58:22.885Z,8.23
2019-03-08T11:59:22.808Z,8.29
2019-03-08T12:00:22.723Z,8.26
2019-03-08T12:01:22.633Z,9.08
2019-03-08T12:02:22.546Z,10.02
2019-03-08T12:03:22.473Z,10.04
2019-03-08T12:04:22.383Z,10.36
2019-03-08T12:05:22.296Z,10.68
2019-03-08T12:06:22.222Z,11.18
2019-03-08T12:07:22.138Z,10.94
2019-03-08T12:08:22.048Z,11.18
2019-03-08T12:09:21.972Z,11.91
2019-03-08T12:10:21.890Z,12.57
2019-03-08T12:11:21.799Z,12.74
2019-03-08T12:12:21.725Z,12.56
2019-03-08T12:13:21.634Z,12.49
2019-03-08T12:14:21.561Z,12.35
2019-03-08T12:15:21.473Z,12.28
2019-03-08T12:16:21.385Z,11.95
2019-03-08T12:17:21.311Z,12.01
2019-03-08T12:18:21.224Z,12.52
2019-03-08T12:19:21.149Z,12.56
2019-03-08T12:20:21.060Z,12.37
2019-03-08T12:21:20.985Z,12.62
2019-03-08T12:22:20.899Z,12.77
2019-03-08T12:23:20.827Z,12.20
2019-03-08T12:24:20.736Z,12.19
2019-03-08T12:25:20.675Z,12.32
2019-03-08T12:26:20.574Z,12.77
2019-03-08T12:27:20.502Z,12.95
2019-03-08T12:28:20.414Z,13.08
2019-03-08T12:29:20.342Z,12.49
2019-03-08T12:30:20.250Z,12.90
2019-03-08T12:31:20.174Z,13.08
2019-03-08T12:32:20.087Z,13.55
2019-03-08T12:33:20.049Z,13.30
2019-03-08T12:34:19.924Z,12.67
2019-03-08T12:35:19.855Z,13.11
2019-03-08T12:36:19.762Z,13.25
2019-03-08T12:37:19.989Z,13.69
2019-03-08T12:38:19.612Z,14.12
2019-03-08T12:39:19.525Z,14.22
2019-03-08T12:40:19.450Z,13.82
2019-03-08T12:41:19.363Z,13.79
2019-03-08T12:42:19.301Z,13.44
2019-03-08T12:43:19.200Z,13.67
2019-03-08T12:44:19.128Z,13.25
2019-03-08T12:45:19.039Z,13.52
2019-03-08T12:46:18.964Z,13.48
2019-03-08T12:47:18.888Z,12.46
2019-03-08T12:48:23.815Z,12.95
2019-03-08T12:49:18.732Z,12.59
2019-03-08T12:50:18.652Z,12.83
2019-03-08T12:51:18.563Z,12.27
2019-03-08T12:52:18.489Z,11.88
2019-03-08T12:53:18.402Z,11.58
2019-03-08T12:54:19.484Z,11.44
2019-03-08T12:55:18.254Z,11.29
2019-03-08T12:56:18.167Z,11.24
2019-03-08T12:57:18.078Z,11.55
2019-03-08T12:58:18.003Z,11.55
2019-03-08T12:59:17.929Z,11.99
2019-03-08T13:00:19.792Z,12.42
2019-03-08T13:01:17.764Z,12.77
2019-03-08T13:02:17.681Z,12.83
2019-03-08T13:03:17.602Z,13.19
2019-03-08T13:04:17.514Z,13.73
2019-03-08T13:05:17.441Z,14.46